Terminal Aerodrome Forecast
Issued by NWS Portland, OR

Current Version | Previous Version | Text Only | Print | Product List | Glossary On
Versions: 1 2 3 4 5 6 7 8 9 10 11 12 13 14 15 16 17 18 19 20 21 22 23 24 25
000
FTUS46 KPQR 181144
TAFSLE
TAF
KSLE 181144Z 1812/1912 19007KT P6SM FEW025 BKN060
     FM181700 17011KT P6SM -RA SCT025 OVC040
     FM182100 17014G22KT P6SM SCT025 BKN035
     FM190900 18015KT 5SM -SHRA OVC025=

USA.gov is the U.S. government's official web portal to all federal, state and local government web resources and services.